sensor_id;sensor_type;location;lat;lon;timestamp;temperature;humidity
12386;DHT22;6257;57.634;18.310;2022-10-16T00:00:48;12.30;99.90
12386;DHT22;6257;57.634;18.310;2022-10-16T00:03:16;12.30;99.90
12386;DHT22;6257;57.634;18.310;2022-10-16T00:05:43;12.40;99.90
12386;DHT22;6257;57.634;18.310;2022-10-16T00:08:11;12.50;99.90
12386;DHT22;6257;57.634;18.310;2022-10-16T00:10:39;12.50;99.90
12386;DHT22;6257;57.634;18.310;2022-10-16T00:13:06;12.50;99.90
12386;DHT22;6257;57.634;18.310;2022-10-16T00:15:34;12.50;99.90
12386;DHT22;6257;57.634;18.310;2022-10-16T00:18:04;12.60;99.90
12386;DHT22;6257;57.634;18.310;2022-10-16T00:20:34;12.60;99.90
12386;DHT22;6257;57.634;18.310;2022-10-16T00:23:02;12.60;99.90
12386;DHT22;6257;57.634;18.310;2022-10-16T00:25:29;12.70;99.90
12386;DHT22;6257;57.634;18.310;2022-10-16T00:27:58;12.70;99.90
12386;DHT22;6257;57.634;18.310;2022-10-16T00:30:25;12.70;99.90
12386;DHT22;6257;57.634;18.310;2022-10-16T00:32:53;12.70;99.90
12386;DHT22;6257;57.634;18.310;2022-10-16T00:35:21;12.70;99.90
12386;DHT22;6257;57.634;18.310;2022-10-16T00:37:48;12.60;99.90
12386;DHT22;6257;57.634;18.310;2022-10-16T00:40:16;12.60;99.90
12386;DHT22;6257;57.634;18.310;2022-10-16T00:42:42;12.60;99.90
12386;DHT22;6257;57.634;18.310;2022-10-16T00:45:10;12.50;99.90
12386;DHT22;6257;57.634;18.310;2022-10-16T00:47:39;12.50;99.90
12386;DHT22;6257;57.634;18.310;2022-10-16T00:50:09;12.50;99.90
12386;DHT22;6257;57.634;18.310;2022-10-16T00:52:41;12.60;99.90
12386;DHT22;6257;57.634;18.310;2022-10-16T00:55:10;12.50;99.90
12386;DHT22;6257;57.634;18.310;2022-10-16T00:57:37;12.60;99.90
12386;DHT22;6257;57.634;18.310;2022-10-16T01:00:08;12.60;99.90
12386;DHT22;6257;57.634;18.310;2022-10-16T01:02:35;12.60;99.90
12386;DHT22;6257;57.634;18.310;2022-10-16T01:05:04;12.60;99.90
12386;DHT22;6257;57.634;18.310;2022-10-16T01:07:41;12.50;99.90
12386;DHT22;6257;57.634;18.310;2022-10-16T01:10:19;12.50;99.90
12386;DHT22;6257;57.634;18.310;2022-10-16T01:12:52;12.60;99.90
12386;DHT22;6257;57.634;18.310;2022-10-16T01:15:26;12.60;99.90
12386;DHT22;6257;57.634;18.310;2022-10-16T01:18:00;12.60;99.90
12386;DHT22;6257;57.634;18.310;2022-10-16T01:20:30;12.60;99.90
12386;DHT22;6257;57.634;18.310;2022-10-16T01:23:06;12.60;99.90
12386;DHT22;6257;57.634;18.310;2022-10-16T01:25:53;12.60;99.90
12386;DHT22;6257;57.634;18.310;2022-10-16T01:28:29;12.60;99.90
12386;DHT22;6257;57.634;18.310;2022-10-16T01:31:00;12.70;99.90
12386;DHT22;6257;57.634;18.310;2022-10-16T01:33:32;12.70;99.90
12386;DHT22;6257;57.634;18.310;2022-10-16T01:36:08;12.70;99.90
12386;DHT22;6257;57.634;18.310;2022-10-16T01:38:38;12.70;99.90
12386;DHT22;6257;57.634;18.310;2022-10-16T01:41:09;12.70;99.90
12386;DHT22;6257;57.634;18.310;2022-10-16T01:43:42;12.70;99.90
12386;DHT22;6257;57.634;18.310;2022-10-16T01:46:11;12.70;99.90
12386;DHT22;6257;57.634;18.310;2022-10-16T01:48:39;12.70;99.90
12386;DHT22;6257;57.634;18.310;2022-10-16T01:51:10;12.80;99.90
12386;DHT22;6257;57.634;18.310;2022-10-16T01:53:38;12.80;99.90
12386;DHT22;6257;57.634;18.310;2022-10-16T01:56:08;12.80;99.90
12386;DHT22;6257;57.634;18.310;2022-10-16T01:58:40;12.80;99.90
12386;DHT22;6257;57.634;18.310;2022-10-16T02:01:11;12.80;99.90
12386;DHT22;6257;57.634;18.310;2022-10-16T02:03:40;12.80;99.90
12386;DHT22;6257;57.634;18.310;2022-10-16T02:06:09;12.70;99.90
12386;DHT22;6257;57.634;18.310;2022-10-16T02:08:36;12.70;99.90
12386;DHT22;6257;57.634;18.310;2022-10-16T02:11:04;12.70;99.90
12386;DHT22;6257;57.634;18.310;2022-10-16T02:13:35;12.70;99.90
12386;DHT22;6257;57.634;18.310;2022-10-16T02:16:06;12.70;99.90
12386;DHT22;6257;57.634;18.310;2022-10-16T02:18:34;12.70;99.90
12386;DHT22;6257;57.634;18.310;2022-10-16T02:21:04;12.70;99.90
12386;DHT22;6257;57.634;18.310;2022-10-16T02:23:38;12.70;99.90
12386;DHT22;6257;57.634;18.310;2022-10-16T02:26:09;12.80;99.90
12386;DHT22;6257;57.634;18.310;2022-10-16T02:28:42;12.80;99.90
12386;DHT22;6257;57.634;18.310;2022-10-16T02:31:16;12.80;99.90
12386;DHT22;6257;57.634;18.310;2022-10-16T02:33:46;12.80;99.90
12386;DHT22;6257;57.634;18.310;2022-10-16T02:36:13;12.80;99.90
12386;DHT22;6257;57.634;18.310;2022-10-16T02:38:40;12.80;99.90
12386;DHT22;6257;57.634;18.310;2022-10-16T02:41:08;12.80;99.90
12386;DHT22;6257;57.634;18.310;2022-10-16T02:43:35;12.80;99.90
12386;DHT22;6257;57.634;18.310;2022-10-16T02:46:02;12.90;99.90
12386;DHT22;6257;57.634;18.310;2022-10-16T02:48:30;12.90;99.90
12386;DHT22;6257;57.634;18.310;2022-10-16T02:50:57;12.90;99.90
12386;DHT22;6257;57.634;18.310;2022-10-16T02:53:24;12.90;99.90
12386;DHT22;6257;57.634;18.310;2022-10-16T02:55:51;12.90;99.90
12386;DHT22;6257;57.634;18.310;2022-10-16T02:58:18;12.90;99.90
12386;DHT22;6257;57.634;18.310;2022-10-16T03:00:45;12.90;99.90
12386;DHT22;6257;57.634;18.310;2022-10-16T03:03:12;12.90;99.90
12386;DHT22;6257;57.634;18.310;2022-10-16T03:05:42;12.90;99.90
12386;DHT22;6257;57.634;18.310;2022-10-16T03:08:11;12.90;99.90
12386;DHT22;6257;57.634;18.310;2022-10-16T03:10:38;12.90;99.90
12386;DHT22;6257;57.634;18.310;2022-10-16T03:13:05;12.90;99.90
12386;DHT22;6257;57.634;18.310;2022-10-16T03:15:32;12.80;99.90
12386;DHT22;6257;57.634;18.310;2022-10-16T03:17:59;12.80;99.90
12386;DHT22;6257;57.634;18.310;2022-10-16T03:20:26;12.80;99.90
12386;DHT22;6257;57.634;18.310;2022-10-16T03:22:54;12.90;99.90
12386;DHT22;6257;57.634;18.310;2022-10-16T03:25:21;12.90;99.90
12386;DHT22;6257;57.634;18.310;2022-10-16T03:27:48;12.90;99.90
12386;DHT22;6257;57.634;18.310;2022-10-16T03:30:15;12.80;99.90
12386;DHT22;6257;57.634;18.310;2022-10-16T03:32:44;12.80;99.90
12386;DHT22;6257;57.634;18.310;2022-10-16T03:35:12;12.80;99.90
12386;DHT22;6257;57.634;18.310;2022-10-16T03:37:39;12.80;99.90
12386;DHT22;6257;57.634;18.310;2022-10-16T03:40:08;12.90;99.90
12386;DHT22;6257;57.634;18.310;2022-10-16T03:42:35;12.80;99.90
12386;DHT22;6257;57.634;18.310;2022-10-16T03:45:02;12.80;99.90
12386;DHT22;6257;57.634;18.310;2022-10-16T03:47:29;12.90;99.90
12386;DHT22;6257;57.634;18.310;2022-10-16T03:49:58;12.90;99.90
12386;DHT22;6257;57.634;18.310;2022-10-16T03:52:26;12.90;99.90
12386;DHT22;6257;57.634;18.310;2022-10-16T03:54:53;12.90;99.90
12386;DHT22;6257;57.634;18.310;2022-10-16T03:57:21;12.90;99.90
12386;DHT22;6257;57.634;18.310;2022-10-16T03:59:48;12.80;99.90
12386;DHT22;6257;57.634;18.310;2022-10-16T04:02:15;12.90;99.90
12386;DHT22;6257;57.634;18.310;2022-10-16T04:04:42;12.90;99.90
12386;DHT22;6257;57.634;18.310;2022-10-16T04:07:09;12.90;99.90
12386;DHT22;6257;57.634;18.310;2022-10-16T04:09:36;12.90;99.90
12386;DHT22;6257;57.634;18.310;2022-10-16T04:12:03;12.90;99.90
12386;DHT22;6257;57.634;18.310;2022-10-16T04:14:31;12.90;99.90
12386;DHT22;6257;57.634;18.310;2022-10-16T04:16:58;11.70;99.90
12386;DHT22;6257;57.634;18.310;2022-10-16T04:19:25;12.90;99.90
12386;DHT22;6257;57.634;18.310;2022-10-16T04:21:52;12.90;99.90
12386;DHT22;6257;57.634;18.310;2022-10-16T04:24:19;12.90;99.90
12386;DHT22;6257;57.634;18.310;2022-10-16T04:26:46;12.90;99.90
12386;DHT22;6257;57.634;18.310;2022-10-16T04:29:13;12.90;99.90
12386;DHT22;6257;57.634;18.310;2022-10-16T04:31:41;12.90;99.90
12386;DHT22;6257;57.634;18.310;2022-10-16T04:34:08;12.90;99.90
12386;DHT22;6257;57.634;18.310;2022-10-16T04:36:35;12.90;99.90
12386;DHT22;6257;57.634;18.310;2022-10-16T04:39:02;13.00;99.90
12386;DHT22;6257;57.634;18.310;2022-10-16T04:41:29;12.90;99.90
12386;DHT22;6257;57.634;18.310;2022-10-16T04:43:56;12.90;99.90
12386;DHT22;6257;57.634;18.310;2022-10-16T04:46:23;13.00;99.90
12386;DHT22;6257;57.634;18.310;2022-10-16T04:48:51;12.90;99.90
12386;DHT22;6257;57.634;18.310;2022-10-16T04:51:19;12.90;99.90
12386;DHT22;6257;57.634;18.310;2022-10-16T04:53:46;13.00;99.90
12386;DHT22;6257;57.634;18.310;2022-10-16T04:56:13;13.00;99.90
12386;DHT22;6257;57.634;18.310;2022-10-16T04:58:40;13.00;99.90
12386;DHT22;6257;57.634;18.310;2022-10-16T05:01:07;13.00;99.90
12386;DHT22;6257;57.634;18.310;2022-10-16T05:03:34;13.00;99.90
12386;DHT22;6257;57.634;18.310;2022-10-16T05:06:05;13.00;99.90
12386;DHT22;6257;57.634;18.310;2022-10-16T05:08:32;13.00;99.90
12386;DHT22;6257;57.634;18.310;2022-10-16T05:10:59;13.00;99.90
12386;DHT22;6257;57.634;18.310;2022-10-16T05:13:27;13.00;99.90
12386;DHT22;6257;57.634;18.310;2022-10-16T05:15:54;13.10;99.90
12386;DHT22;6257;57.634;18.310;2022-10-16T05:18:21;13.00;99.90
12386;DHT22;6257;57.634;18.310;2022-10-16T05:20:48;13.00;99.90
12386;DHT22;6257;57.634;18.310;2022-10-16T05:23:16;13.00;99.90
12386;DHT22;6257;57.634;18.310;2022-10-16T05:25:43;13.00;99.90
12386;DHT22;6257;57.634;18.310;2022-10-16T05:28:18;13.00;99.90
12386;DHT22;6257;57.634;18.310;2022-10-16T05:30:45;13.10;99.90
12386;DHT22;6257;57.634;18.310;2022-10-16T05:33:12;13.10;99.90
12386;DHT22;6257;57.634;18.310;2022-10-16T05:35:39;13.10;99.90
12386;DHT22;6257;57.634;18.310;2022-10-16T05:38:05;13.20;99.90
12386;DHT22;6257;57.634;18.310;2022-10-16T05:40:34;13.20;99.90
12386;DHT22;6257;57.634;18.310;2022-10-16T05:43:01;13.20;99.90
12386;DHT22;6257;57.634;18.310;2022-10-16T05:45:28;13.20;99.90
12386;DHT22;6257;57.634;18.310;2022-10-16T05:47:55;13.30;99.90
12386;DHT22;6257;57.634;18.310;2022-10-16T05:50:22;13.30;99.90
12386;DHT22;6257;57.634;18.310;2022-10-16T05:52:49;13.30;99.90
12386;DHT22;6257;57.634;18.310;2022-10-16T05:55:15;13.30;99.90
12386;DHT22;6257;57.634;18.310;2022-10-16T05:57:44;13.30;99.90
12386;DHT22;6257;57.634;18.310;2022-10-16T06:00:11;13.40;99.90
12386;DHT22;6257;57.634;18.310;2022-10-16T06:02:38;13.40;99.90
12386;DHT22;6257;57.634;18.310;2022-10-16T06:05:06;13.40;99.90
12386;DHT22;6257;57.634;18.310;2022-10-16T06:07:34;13.40;99.90
12386;DHT22;6257;57.634;18.310;2022-10-16T06:10:03;13.40;99.90
12386;DHT22;6257;57.634;18.310;2022-10-16T06:12:30;13.40;99.90
12386;DHT22;6257;57.634;18.310;2022-10-16T06:14:59;13.40;99.90
12386;DHT22;6257;57.634;18.310;2022-10-16T06:17:26;13.40;99.90
12386;DHT22;6257;57.634;18.310;2022-10-16T06:19:52;13.40;99.90
12386;DHT22;6257;57.634;18.310;2022-10-16T06:22:19;13.40;99.90
12386;DHT22;6257;57.634;18.310;2022-10-16T06:24:46;13.40;99.90
12386;DHT22;6257;57.634;18.310;2022-10-16T06:27:15;13.40;99.90
12386;DHT22;6257;57.634;18.310;2022-10-16T06:29:42;13.50;99.90
12386;DHT22;6257;57.634;18.310;2022-10-16T06:32:12;13.40;99.90
12386;DHT22;6257;57.634;18.310;2022-10-16T06:34:38;13.50;99.90
12386;DHT22;6257;57.634;18.310;2022-10-16T06:37:06;13.50;99.90
12386;DHT22;6257;57.634;18.310;2022-10-16T06:39:33;13.50;99.90
12386;DHT22;6257;57.634;18.310;2022-10-16T06:42:00;13.50;99.90
12386;DHT22;6257;57.634;18.310;2022-10-16T06:44:27;13.50;99.90
12386;DHT22;6257;57.634;18.310;2022-10-16T06:46:54;13.50;99.90
12386;DHT22;6257;57.634;18.310;2022-10-16T06:49:22;13.50;99.90
12386;DHT22;6257;57.634;18.310;2022-10-16T06:51:49;13.50;99.90
12386;DHT22;6257;57.634;18.310;2022-10-16T06:54:16;13.50;99.90
12386;DHT22;6257;57.634;18.310;2022-10-16T06:56:44;13.50;99.90
12386;DHT22;6257;57.634;18.310;2022-10-16T06:59:11;13.50;99.90
12386;DHT22;6257;57.634;18.310;2022-10-16T07:01:38;13.50;99.90
12386;DHT22;6257;57.634;18.310;2022-10-16T07:04:05;13.60;99.90
12386;DHT22;6257;57.634;18.310;2022-10-16T07:06:34;13.60;99.90
12386;DHT22;6257;57.634;18.310;2022-10-16T07:09:03;13.60;99.90
12386;DHT22;6257;57.634;18.310;2022-10-16T07:11:31;13.70;99.90
12386;DHT22;6257;57.634;18.310;2022-10-16T07:13:58;13.80;99.90
12386;DHT22;6257;57.634;18.310;2022-10-16T07:16:26;13.80;99.90
12386;DHT22;6257;57.634;18.310;2022-10-16T07:18:54;13.90;99.90
12386;DHT22;6257;57.634;18.310;2022-10-16T07:21:24;13.80;99.90
12386;DHT22;6257;57.634;18.310;2022-10-16T07:23:54;13.80;99.90
12386;DHT22;6257;57.634;18.310;2022-10-16T08:18:18;14.00;99.90
12386;DHT22;6257;57.634;18.310;2022-10-16T08:20:45;14.00;99.90
12386;DHT22;6257;57.634;18.310;2022-10-16T08:23:13;14.10;99.90
12386;DHT22;6257;57.634;18.310;2022-10-16T08:25:40;14.10;99.90
12386;DHT22;6257;57.634;18.310;2022-10-16T08:28:09;14.00;99.90
12386;DHT22;6257;57.634;18.310;2022-10-16T08:30:36;14.10;99.90
12386;DHT22;6257;57.634;18.310;2022-10-16T08:33:04;14.20;99.90
12386;DHT22;6257;57.634;18.310;2022-10-16T08:35:33;14.30;99.90
12386;DHT22;6257;57.634;18.310;2022-10-16T08:38:02;14.40;99.90
12386;DHT22;6257;57.634;18.310;2022-10-16T08:40:31;14.50;99.90
12386;DHT22;6257;57.634;18.310;2022-10-16T08:43:21;14.50;99.90
12386;DHT22;6257;57.634;18.310;2022-10-16T08:46:17;14.60;99.90
12386;DHT22;6257;57.634;18.310;2022-10-16T08:48:48;14.60;99.90
12386;DHT22;6257;57.634;18.310;2022-10-16T08:51:20;14.70;99.90
12386;DHT22;6257;57.634;18.310;2022-10-16T08:53:53;14.70;99.90
12386;DHT22;6257;57.634;18.310;2022-10-16T08:56:21;14.70;99.90
12386;DHT22;6257;57.634;18.310;2022-10-16T08:58:49;14.60;99.90
12386;DHT22;6257;57.634;18.310;2022-10-16T09:01:18;14.60;99.90
12386;DHT22;6257;57.634;18.310;2022-10-16T09:06:52;14.60;99.90
12386;DHT22;6257;57.634;18.310;2022-10-16T09:09:32;14.60;99.90
12386;DHT22;6257;57.634;18.310;2022-10-16T09:12:04;14.60;99.90
12386;DHT22;6257;57.634;18.310;2022-10-16T09:14:49;14.50;99.90
12386;DHT22;6257;57.634;18.310;2022-10-16T09:17:30;14.50;99.90
12386;DHT22;6257;57.634;18.310;2022-10-16T09:20:13;14.50;99.90
12386;DHT22;6257;57.634;18.310;2022-10-16T09:22:44;14.40;99.90
12386;DHT22;6257;57.634;18.310;2022-10-16T09:25:13;14.40;99.90
12386;DHT22;6257;57.634;18.310;2022-10-16T09:27:41;14.60;99.90
12386;DHT22;6257;57.634;18.310;2022-10-16T09:30:14;14.60;99.90
12386;DHT22;6257;57.634;18.310;2022-10-16T09:32:43;14.70;99.90
12386;DHT22;6257;57.634;18.310;2022-10-16T09:35:14;14.70;99.90
12386;DHT22;6257;57.634;18.310;2022-10-16T09:37:44;14.70;99.90
12386;DHT22;6257;57.634;18.310;2022-10-16T09:40:13;14.70;99.90
12386;DHT22;6257;57.634;18.310;2022-10-16T09:42:53;14.70;99.90
12386;DHT22;6257;57.634;18.310;2022-10-16T09:45:24;14.80;99.90
12386;DHT22;6257;57.634;18.310;2022-10-16T09:47:51;14.90;99.90
12386;DHT22;6257;57.634;18.310;2022-10-16T09:50:23;15.00;99.90
12386;DHT22;6257;57.634;18.310;2022-10-16T09:53:03;15.00;99.90
12386;DHT22;6257;57.634;18.310;2022-10-16T09:55:30;15.00;99.90
12386;DHT22;6257;57.634;18.310;2022-10-16T09:57:57;15.00;99.90
12386;DHT22;6257;57.634;18.310;2022-10-16T10:00:25;15.00;99.90
12386;DHT22;6257;57.634;18.310;2022-10-16T10:02:52;15.00;99.90
12386;DHT22;6257;57.634;18.310;2022-10-16T10:05:21;15.00;99.90
12386;DHT22;6257;57.634;18.310;2022-10-16T10:07:55;15.00;99.90
12386;DHT22;6257;57.634;18.310;2022-10-16T10:10:26;15.00;99.90
12386;DHT22;6257;57.634;18.310;2022-10-16T10:12:54;15.00;99.90
12386;DHT22;6257;57.634;18.310;2022-10-16T10:15:23;14.90;99.90
12386;DHT22;6257;57.634;18.310;2022-10-16T10:17:53;14.80;99.90
12386;DHT22;6257;57.634;18.310;2022-10-16T10:20:26;14.80;99.90
12386;DHT22;6257;57.634;18.310;2022-10-16T10:22:55;14.80;99.90
12386;DHT22;6257;57.634;18.310;2022-10-16T10:25:42;14.70;99.90
12386;DHT22;6257;57.634;18.310;2022-10-16T10:28:21;14.60;99.90
12386;DHT22;6257;57.634;18.310;2022-10-16T10:30:57;14.60;99.90
12386;DHT22;6257;57.634;18.310;2022-10-16T10:33:39;14.60;99.90
12386;DHT22;6257;57.634;18.310;2022-10-16T10:36:15;14.50;99.90
12386;DHT22;6257;57.634;18.310;2022-10-16T10:38:51;14.50;99.90
12386;DHT22;6257;57.634;18.310;2022-10-16T10:41:39;14.60;99.90
12386;DHT22;6257;57.634;18.310;2022-10-16T10:44:16;14.60;99.90
12386;DHT22;6257;57.634;18.310;2022-10-16T10:46:51;14.70;99.90
12386;DHT22;6257;57.634;18.310;2022-10-16T10:49:33;14.70;99.90
12386;DHT22;6257;57.634;18.310;2022-10-16T10:52:08;14.70;99.90
12386;DHT22;6257;57.634;18.310;2022-10-16T10:54:47;14.70;99.90
12386;DHT22;6257;57.634;18.310;2022-10-16T10:57:22;14.60;99.90
12386;DHT22;6257;57.634;18.310;2022-10-16T11:00:10;14.60;99.90
12386;DHT22;6257;57.634;18.310;2022-10-16T11:02:44;14.60;99.90
12386;DHT22;6257;57.634;18.310;2022-10-16T11:05:30;14.50;99.90
12386;DHT22;6257;57.634;18.310;2022-10-16T11:07:59;14.40;99.90
12386;DHT22;6257;57.634;18.310;2022-10-16T11:10:31;14.30;99.90
12386;DHT22;6257;57.634;18.310;2022-10-16T11:13:10;14.30;99.90
12386;DHT22;6257;57.634;18.310;2022-10-16T11:15:41;14.20;99.90
12386;DHT22;6257;57.634;18.310;2022-10-16T11:18:16;14.10;99.90
12386;DHT22;6257;57.634;18.310;2022-10-16T11:20:49;14.10;99.90
12386;DHT22;6257;57.634;18.310;2022-10-16T11:23:23;14.10;99.90
12386;DHT22;6257;57.634;18.310;2022-10-16T11:25:54;14.20;99.90
12386;DHT22;6257;57.634;18.310;2022-10-16T11:28:26;14.30;99.90
12386;DHT22;6257;57.634;18.310;2022-10-16T11:31:02;14.30;99.90
12386;DHT22;6257;57.634;18.310;2022-10-16T11:33:34;14.40;99.90
12386;DHT22;6257;57.634;18.310;2022-10-16T11:36:07;14.50;99.90
12386;DHT22;6257;57.634;18.310;2022-10-16T11:38:41;14.50;99.90
12386;DHT22;6257;57.634;18.310;2022-10-16T11:41:17;14.40;99.90
12386;DHT22;6257;57.634;18.310;2022-10-16T11:43:52;14.20;99.90
12386;DHT22;6257;57.634;18.310;2022-10-16T11:46:24;14.10;99.90
12386;DHT22;6257;57.634;18.310;2022-10-16T11:48:57;14.20;99.90
12386;DHT22;6257;57.634;18.310;2022-10-16T11:51:33;14.30;99.90
12386;DHT22;6257;57.634;18.310;2022-10-16T11:54:04;14.30;99.90
12386;DHT22;6257;57.634;18.310;2022-10-16T11:56:38;14.30;99.90
12386;DHT22;6257;57.634;18.310;2022-10-16T11:59:11;14.30;99.90
12386;DHT22;6257;57.634;18.310;2022-10-16T12:01:44;14.40;99.90
12386;DHT22;6257;57.634;18.310;2022-10-16T12:04:21;14.50;99.90
12386;DHT22;6257;57.634;18.310;2022-10-16T12:06:52;14.60;99.90
12386;DHT22;6257;57.634;18.310;2022-10-16T12:09:26;14.70;99.90
12386;DHT22;6257;57.634;18.310;2022-10-16T12:11:55;14.80;99.90
12386;DHT22;6257;57.634;18.310;2022-10-16T12:14:35;14.70;99.90
12386;DHT22;6257;57.634;18.310;2022-10-16T12:17:04;14.60;99.90
12386;DHT22;6257;57.634;18.310;2022-10-16T12:19:58;14.60;99.90
12386;DHT22;6257;57.634;18.310;2022-10-16T12:22:29;14.50;99.90
12386;DHT22;6257;57.634;18.310;2022-10-16T12:24:57;14.30;99.90
12386;DHT22;6257;57.634;18.310;2022-10-16T12:27:29;14.30;99.90
12386;DHT22;6257;57.634;18.310;2022-10-16T12:29:57;14.30;99.90
12386;DHT22;6257;57.634;18.310;2022-10-16T12:32:29;14.20;99.90
12386;DHT22;6257;57.634;18.310;2022-10-16T12:34:57;14.20;99.90
12386;DHT22;6257;57.634;18.310;2022-10-16T12:37:27;14.30;99.90
12386;DHT22;6257;57.634;18.310;2022-10-16T12:39:56;14.40;99.90
12386;DHT22;6257;57.634;18.310;2022-10-16T12:42:33;14.40;99.90
12386;DHT22;6257;57.634;18.310;2022-10-16T12:45:01;14.40;99.90
12386;DHT22;6257;57.634;18.310;2022-10-16T12:47:48;14.50;99.90
12386;DHT22;6257;57.634;18.310;2022-10-16T12:50:32;14.50;99.90
12386;DHT22;6257;57.634;18.310;2022-10-16T12:53:00;14.50;99.90
12386;DHT22;6257;57.634;18.310;2022-10-16T12:55:27;14.60;99.90
12386;DHT22;6257;57.634;18.310;2022-10-16T12:58:09;14.60;99.90
12386;DHT22;6257;57.634;18.310;2022-10-16T13:00:44;14.60;99.90
12386;DHT22;6257;57.634;18.310;2022-10-16T13:06:19;14.50;99.90
12386;DHT22;6257;57.634;18.310;2022-10-16T13:09:10;14.50;99.90
12386;DHT22;6257;57.634;18.310;2022-10-16T13:11:55;14.50;99.90
12386;DHT22;6257;57.634;18.310;2022-10-16T13:14:45;14.60;99.90
12386;DHT22;6257;57.634;18.310;2022-10-16T13:17:20;14.60;99.90
12386;DHT22;6257;57.634;18.310;2022-10-16T13:19:55;14.60;99.90
12386;DHT22;6257;57.634;18.310;2022-10-16T13:22:32;14.60;99.90
12386;DHT22;6257;57.634;18.310;2022-10-16T13:25:14;14.60;99.90
12386;DHT22;6257;57.634;18.310;2022-10-16T13:27:49;14.60;99.90
12386;DHT22;6257;57.634;18.310;2022-10-16T13:30:21;14.50;99.90
12386;DHT22;6257;57.634;18.310;2022-10-16T13:32:53;14.50;99.90
12386;DHT22;6257;57.634;18.310;2022-10-16T13:35:28;14.40;99.90
12386;DHT22;6257;57.634;18.310;2022-10-16T13:38:08;14.50;99.90
12386;DHT22;6257;57.634;18.310;2022-10-16T13:40:49;14.40;99.90
12386;DHT22;6257;57.634;18.310;2022-10-16T13:43:17;14.40;99.90
12386;DHT22;6257;57.634;18.310;2022-10-16T13:45:57;14.30;99.90
12386;DHT22;6257;57.634;18.310;2022-10-16T13:48:25;14.30;99.90
12386;DHT22;6257;57.634;18.310;2022-10-16T13:51:04;14.30;99.90
12386;DHT22;6257;57.634;18.310;2022-10-16T13:53:32;14.30;99.90
12386;DHT22;6257;57.634;18.310;2022-10-16T13:56:03;14.40;99.90
12386;DHT22;6257;57.634;18.310;2022-10-16T13:58:31;14.40;99.90
12386;DHT22;6257;57.634;18.310;2022-10-16T14:01:01;14.40;99.90
12386;DHT22;6257;57.634;18.310;2022-10-16T14:03:31;14.30;99.90
12386;DHT22;6257;57.634;18.310;2022-10-16T14:06:01;14.30;99.90
12386;DHT22;6257;57.634;18.310;2022-10-16T14:08:29;14.20;99.90
12386;DHT22;6257;57.634;18.310;2022-10-16T14:10:58;14.20;99.90
12386;DHT22;6257;57.634;18.310;2022-10-16T14:13:31;14.20;99.90
12386;DHT22;6257;57.634;18.310;2022-10-16T14:16:02;14.20;99.90
12386;DHT22;6257;57.634;18.310;2022-10-16T14:18:31;14.10;99.90
12386;DHT22;6257;57.634;18.310;2022-10-16T14:21:03;14.10;99.90
12386;DHT22;6257;57.634;18.310;2022-10-16T14:23:33;14.10;99.90
12386;DHT22;6257;57.634;18.310;2022-10-16T14:26:17;14.00;99.90
12386;DHT22;6257;57.634;18.310;2022-10-16T14:28:45;14.00;99.90
12386;DHT22;6257;57.634;18.310;2022-10-16T14:31:32;13.90;99.90
12386;DHT22;6257;57.634;18.310;2022-10-16T14:33:59;13.90;99.90
12386;DHT22;6257;57.634;18.310;2022-10-16T14:36:27;13.90;99.90
12386;DHT22;6257;57.634;18.310;2022-10-16T14:38:59;13.80;99.90
12386;DHT22;6257;57.634;18.310;2022-10-16T14:41:27;13.70;99.90
12386;DHT22;6257;57.634;18.310;2022-10-16T14:43:56;13.70;99.90
12386;DHT22;6257;57.634;18.310;2022-10-16T14:46:33;13.60;99.90
12386;DHT22;6257;57.634;18.310;2022-10-16T14:49:04;13.60;99.90
12386;DHT22;6257;57.634;18.310;2022-10-16T14:51:31;13.50;99.90
12386;DHT22;6257;57.634;18.310;2022-10-16T14:53:58;13.50;99.90
12386;DHT22;6257;57.634;18.310;2022-10-16T14:56:29;13.50;99.90
12386;DHT22;6257;57.634;18.310;2022-10-16T14:58:57;13.40;99.90
12386;DHT22;6257;57.634;18.310;2022-10-16T15:01:24;13.40;99.90
12386;DHT22;6257;57.634;18.310;2022-10-16T15:03:52;13.30;99.90
12386;DHT22;6257;57.634;18.310;2022-10-16T15:06:21;13.30;99.90
12386;DHT22;6257;57.634;18.310;2022-10-16T15:08:48;13.30;99.90
12386;DHT22;6257;57.634;18.310;2022-10-16T15:11:16;13.20;99.90
12386;DHT22;6257;57.634;18.310;2022-10-16T15:13:45;13.20;99.90
12386;DHT22;6257;57.634;18.310;2022-10-16T15:16:13;13.20;99.90
12386;DHT22;6257;57.634;18.310;2022-10-16T15:18:41;13.20;99.90
12386;DHT22;6257;57.634;18.310;2022-10-16T15:21:17;13.20;99.90
12386;DHT22;6257;57.634;18.310;2022-10-16T15:23:48;13.20;99.90
12386;DHT22;6257;57.634;18.310;2022-10-16T15:26:16;13.10;99.90
12386;DHT22;6257;57.634;18.310;2022-10-16T15:28:43;13.10;99.90
12386;DHT22;6257;57.634;18.310;2022-10-16T15:31:10;13.10;99.90
12386;DHT22;6257;57.634;18.310;2022-10-16T15:33:37;13.10;99.90
12386;DHT22;6257;57.634;18.310;2022-10-16T15:36:04;13.10;99.90
12386;DHT22;6257;57.634;18.310;2022-10-16T15:38:33;13.10;99.90
12386;DHT22;6257;57.634;18.310;2022-10-16T15:41:00;13.10;99.90
12386;DHT22;6257;57.634;18.310;2022-10-16T15:43:27;13.10;99.90
12386;DHT22;6257;57.634;18.310;2022-10-16T15:45:59;13.10;99.90
12386;DHT22;6257;57.634;18.310;2022-10-16T15:48:27;13.10;99.90
12386;DHT22;6257;57.634;18.310;2022-10-16T15:50:54;13.10;99.90
12386;DHT22;6257;57.634;18.310;2022-10-16T15:53:21;13.10;99.90
12386;DHT22;6257;57.634;18.310;2022-10-16T15:55:50;13.10;99.90
12386;DHT22;6257;57.634;18.310;2022-10-16T15:58:17;13.10;99.90
12386;DHT22;6257;57.634;18.310;2022-10-16T16:00:44;13.10;99.90
12386;DHT22;6257;57.634;18.310;2022-10-16T16:03:11;13.10;99.90
12386;DHT22;6257;57.634;18.310;2022-10-16T16:05:38;13.10;99.90
12386;DHT22;6257;57.634;18.310;2022-10-16T16:08:05;13.00;99.90
12386;DHT22;6257;57.634;18.310;2022-10-16T16:10:32;13.00;99.90
12386;DHT22;6257;57.634;18.310;2022-10-16T16:13:01;13.10;99.90
12386;DHT22;6257;57.634;18.310;2022-10-16T16:15:28;13.10;99.90
12386;DHT22;6257;57.634;18.310;2022-10-16T16:17:55;13.10;99.90
12386;DHT22;6257;57.634;18.310;2022-10-16T16:20:22;13.10;99.90
12386;DHT22;6257;57.634;18.310;2022-10-16T16:22:49;13.10;99.90
12386;DHT22;6257;57.634;18.310;2022-10-16T16:25:16;13.10;99.90
12386;DHT22;6257;57.634;18.310;2022-10-16T16:27:43;13.20;99.90
12386;DHT22;6257;57.634;18.310;2022-10-16T16:30:11;13.20;99.90
12386;DHT22;6257;57.634;18.310;2022-10-16T16:32:38;12.60;99.90
12386;DHT22;6257;57.634;18.310;2022-10-16T16:35:06;11.00;99.90
12386;DHT22;6257;57.634;18.310;2022-10-16T16:37:33;10.20;99.90
12386;DHT22;6257;57.634;18.310;2022-10-16T16:40:00;9.80;99.90
12386;DHT22;6257;57.634;18.310;2022-10-16T16:42:28;9.60;99.90
12386;DHT22;6257;57.634;18.310;2022-10-16T16:44:55;9.50;99.90
12386;DHT22;6257;57.634;18.310;2022-10-16T16:47:23;9.50;99.90